Time;durP1;ratioP1;P1;durP2;ratioP2;P2;SDS_P1;SDS_P2;PMS_P1;PMS_P2;Temp;Humidity;BMP_temperature;BMP_pressure;BME280_temperature;BME280_humidity;BME280_pressure;Samples;Min_cycle;Max_cycle;Signal;HPM_P1;HPM_P2
2024/02/21 00:00:38;;;;;;;4.95;2.38;;;;;;;1.38;100.00;93917.09;2049822;28;20129;-81
2024/02/21 00:01:39;;;;;;;5.03;2.42;;;;;;;1.29;100.00;93917.25;2064711;28;20064;-83
2024/02/21 00:02:39;;;;;;;6.00;2.50;;;;;;;1.31;100.00;93922.94;2077941;28;20029;-82
2024/02/21 00:03:41;;;;;;;4.07;2.53;;;;;;;1.39;100.00;93913.34;2087126;28;20095;-80
2024/02/21 00:04:43;;;;;;;5.57;2.60;;;;;;;1.32;100.00;93918.44;2089080;28;20021;-81
2024/02/21 00:05:44;;;;;;;4.97;2.38;;;;;;;1.30;100.00;93916.16;2090428;28;20098;-83
2024/02/21 00:06:45;;;;;;;6.05;2.42;;;;;;;1.27;100.00;93914.19;2098319;28;20032;-81
2024/02/21 00:07:46;;;;;;;7.50;2.80;;;;;;;1.38;100.00;93917.09;2089013;28;20833;-82
2024/02/21 00:08:47;;;;;;;3.58;1.98;;;;;;;0.98;100.00;93913.44;2093858;28;20032;-84
2024/02/21 00:09:48;;;;;;;5.90;2.42;;;;;;;1.28;100.00;93918.34;2081691;28;20032;-81
2024/02/21 00:10:49;;;;;;;4.97;2.30;;;;;;;1.28;100.00;93912.34;2079723;28;20036;-83
2024/02/21 00:11:50;;;;;;;6.88;2.58;;;;;;;1.40;100.00;93910.38;2074173;28;20083;-82
2024/02/21 00:12:52;;;;;;;4.07;2.13;;;;;;;1.37;100.00;93911.06;2059107;28;20032;-81
2024/02/21 00:13:53;;;;;;;3.30;2.40;;;;;;;1.36;100.00;93908.75;2070321;28;20090;-83
2024/02/21 00:14:53;;;;;;;5.53;2.53;;;;;;;1.34;100.00;93911.72;2069969;28;21708;-82
2024/02/21 00:15:54;;;;;;;7.40;2.88;;;;;;;1.45;100.00;93912.03;2050543;28;20040;-81
2024/02/21 00:16:57;;;;;;;5.43;2.60;;;;;;;1.42;100.00;93910.81;2032026;28;20028;-81
2024/02/21 00:17:58;;;;;;;4.40;2.33;;;;;;;1.36;100.00;93914.03;1994205;28;20028;-83
2024/02/21 00:18:59;;;;;;;7.13;2.20;;;;;;;1.21;100.00;93918.16;2036396;28;20025;-81
2024/02/21 00:20:00;;;;;;;5.82;2.55;;;;;;;1.17;100.00;93910.16;1932906;28;20163;-83
2024/02/21 00:21:01;;;;;;;4.22;2.10;;;;;;;1.19;100.00;93915.13;1956820;28;20067;-84
2024/02/21 00:22:04;;;;;;;6.32;2.47;;;;;;;1.41;100.00;93909.28;1974076;28;20070;-84
2024/02/21 00:23:05;;;;;;;6.43;2.45;;;;;;;1.45;100.00;93915.41;1965742;28;20260;-83
2024/02/21 00:24:06;;;;;;;6.13;2.47;;;;;;;1.49;100.00;93908.38;1846693;28;20196;-82
2024/02/21 00:25:08;;;;;;;4.75;2.63;;;;;;;1.60;100.00;93913.91;1771572;28;20047;-81
2024/02/21 00:26:09;;;;;;;3.40;2.20;;;;;;;1.71;100.00;93912.31;1794278;28;23899;-81
2024/02/21 00:27:10;;;;;;;8.95;2.58;;;;;;;1.63;100.00;93901.94;1779713;28;22600;-83
2024/02/21 00:28:11;;;;;;;6.68;2.63;;;;;;;1.48;100.00;93900.78;1771575;28;22364;-81
2024/02/21 00:29:12;;;;;;;4.68;2.38;;;;;;;1.49;100.00;93904.94;1752782;28;20148;-83
2024/02/21 00:30:13;;;;;;;4.55;2.58;;;;;;;1.39;100.00;93902.81;1771512;28;23677;-82
2024/02/21 00:31:14;;;;;;;3.88;2.58;;;;;;;1.51;100.00;93900.13;1769834;28;20134;-81
2024/02/21 00:32:15;;;;;;;3.90;2.30;;;;;;;1.40;100.00;93902.47;1766722;28;20765;-83
2024/02/21 00:33:17;;;;;;;5.18;2.67;;;;;;;1.37;100.00;93897.91;1766356;28;23034;-81
2024/02/21 00:34:18;;;;;;;4.72;3.00;;;;;;;1.71;100.00;93900.97;1773662;28;20036;-82
2024/02/21 00:35:19;;;;;;;8.90;2.55;;;;;;;1.72;100.00;93905.91;1801399;28;20085;-82
2024/02/21 00:36:21;;;;;;;5.88;2.25;;;;;;;1.75;100.00;93899.19;1810810;28;21566;-81
2024/02/21 00:37:22;;;;;;;7.78;2.90;;;;;;;1.58;100.00;93888.97;1855318;28;20071;-83
2024/02/21 00:38:23;;;;;;;3.20;2.15;;;;;;;1.65;100.00;93894.44;1857460;28;20126;-80
2024/02/21 00:39:24;;;;;;;3.47;2.10;;;;;;;1.65;100.00;93900.47;1886787;28;21158;-82
2024/02/21 00:40:25;;;;;;;7.68;2.58;;;;;;;1.69;100.00;93897.94;1921016;28;20024;-82
2024/02/21 00:41:26;;;;;;;4.63;2.50;;;;;;;1.67;100.00;93900.91;1914837;28;22693;-82
2024/02/21 00:42:27;;;;;;;4.97;2.22;;;;;;;1.49;100.00;93892.56;1896122;28;20108;-81
2024/02/21 00:43:27;;;;;;;7.03;2.53;;;;;;;1.60;100.00;93895.47;1893972;28;20862;-83
2024/02/21 00:44:29;;;;;;;6.57;2.40;;;;;;;1.59;100.00;93899.19;1868816;28;20963;-81
2024/02/21 00:45:30;;;;;;;4.93;2.20;;;;;;;1.58;100.00;93896.88;1843302;28;20031;-82
2024/02/21 00:46:31;;;;;;;6.45;2.65;;;;;;;1.60;100.00;93899.97;1826228;28;20036;-80
2024/02/21 00:47:32;;;;;;;5.70;2.58;;;;;;;1.60;100.00;93906.00;1808082;28;22904;-80
2024/02/21 00:48:33;;;;;;;5.47;2.50;;;;;;;1.66;100.00;93898.59;1833389;28;20125;-79
2024/02/21 00:49:34;;;;;;;4.88;2.67;;;;;;;1.47;100.00;93897.41;1864311;28;22735;-79
2024/02/21 00:50:37;;;;;;;6.40;2.92;;;;;;;1.43;100.00;93896.53;1934182;28;20028;-80
2024/02/21 00:51:38;;;;;;;6.55;2.65;;;;;;;1.65;100.00;93900.47;2087813;28;20026;-83
2024/02/21 00:52:39;;;;;;;7.35;2.78;;;;;;;1.70;100.00;93904.72;2047955;28;20032;-82
2024/02/21 00:53:40;;;;;;;7.25;2.63;;;;;;;1.62;100.00;93890.59;2085560;27;20024;-81
2024/02/21 00:54:41;;;;;;;6.20;2.53;;;;;;;1.67;100.00;93894.88;2037925;28;20478;-81
2024/02/21 00:55:43;;;;;;;4.82;2.40;;;;;;;1.55;100.00;93894.94;2017695;28;20051;-81
2024/02/21 00:56:44;;;;;;;5.82;2.78;;;;;;;1.54;100.00;93886.28;2030085;28;20436;-84
2024/02/21 00:57:45;;;;;;;6.78;2.58;;;;;;;1.35;100.00;93894.81;2032152;28;20036;-82
2024/02/21 00:58:46;;;;;;;4.93;2.30;;;;;;;1.65;100.00;93897.06;2048875;28;20036;-82
2024/02/21 00:59:47;;;;;;;3.67;2.25;;;;;;;1.75;100.00;93891.28;2052915;28;20266;-80
2024/02/21 01:00:48;;;;;;;5.95;2.38;;;;;;;1.72;100.00;93892.75;2056177;28;20039;-81
2024/02/21 01:01:49;;;;;;;5.65;2.45;;;;;;;1.62;100.00;93889.84;2083936;27;20127;-83
2024/02/21 01:02:50;;;;;;;5.22;2.58;;;;;;;1.64;100.00;93891.03;2097401;28;20127;-82
2024/02/21 01:03:53;;;;;;;3.17;2.55;;;;;;;1.73;100.00;93888.25;2038814;28;20028;-82
2024/02/21 01:04:54;;;;;;;4.70;2.33;;;;;;;1.79;100.00;93897.41;2018802;28;20031;-82
2024/02/21 01:05:55;;;;;;;7.30;2.40;;;;;;;1.75;100.00;93886.78;2018815;28;20137;-81
2024/02/21 01:06:55;;;;;;;3.08;2.45;;;;;;;1.70;100.00;93886.28;2033568;28;20035;-79
2024/02/21 01:07:56;;;;;;;7.57;2.67;;;;;;;1.69;100.00;93890.03;2036442;28;20024;-81
2024/02/21 01:08:57;;;;;;;7.25;2.10;;;;;;;1.71;100.00;93885.16;2054185;28;20024;-84
2024/02/21 01:09:58;;;;;;;4.22;2.30;;;;;;;1.82;100.00;93880.91;2078139;27;20055;-81
2024/02/21 01:10:59;;;;;;;4.93;2.63;;;;;;;1.66;100.00;93888.06;2094279;27;20019;-84
2024/02/21 01:12:01;;;;;;;5.50;2.42;;;;;;;1.79;100.00;93884.22;2072164;27;20077;-82
2024/02/21 01:13:02;;;;;;;6.45;2.92;;;;;;;1.89;100.00;93875.03;2018799;28;20173;-82
2024/02/21 01:14:03;;;;;;;5.53;2.40;;;;;;;1.67;100.00;93877.19;2014180;28;20089;-82
2024/02/21 01:15:04;;;;;;;4.35;2.30;;;;;;;1.66;100.00;93877.50;2023386;28;20036;-83
2024/02/21 01:16:06;;;;;;;7.15;2.97;;;;;;;1.66;100.00;93866.97;2030585;27;20066;-81
2024/02/21 01:17:07;;;;;;;3.10;2.20;;;;;;;1.68;100.00;93865.53;2039056;28;20039;-83
2024/02/21 01:18:08;;;;;;;3.80;2.25;;;;;;;1.50;100.00;93865.13;2049920;28;20492;-81
2024/02/21 01:19:09;;;;;;;4.57;2.17;;;;;;;1.57;100.00;93863.75;2061518;28;20125;-80
2024/02/21 01:20:10;;;;;;;3.97;2.33;;;;;;;1.44;100.00;93861.19;2065894;28;20070;-80
2024/02/21 01:21:11;;;;;;;6.25;2.60;;;;;;;1.36;100.00;93862.13;2075097;28;20035;-81
2024/02/21 01:22:12;;;;;;;4.00;2.17;;;;;;;1.59;100.00;93853.66;2080903;28;20089;-80
2024/02/21 01:23:13;;;;;;;5.45;2.50;;;;;;;1.53;100.00;93858.38;2094759;28;20110;-81
2024/02/21 01:24:14;;;;;;;4.85;2.47;;;;;;;1.61;100.00;93852.19;2104339;28;20028;-81
2024/02/21 01:25:15;;;;;;;3.70;2.00;;;;;;;1.61;100.00;93856.69;2105869;28;20024;-84
2024/02/21 01:26:16;;;;;;;5.15;2.50;;;;;;;1.67;100.00;93855.34;2114261;28;20135;-81
2024/02/21 01:27:17;;;;;;;6.82;2.40;;;;;;;1.75;100.00;93852.50;2089381;28;20032;-82
2024/02/21 01:28:18;;;;;;;5.25;2.28;;;;;;;1.69;100.00;93855.75;2105626;28;20362;-82
2024/02/21 01:29:19;;;;;;;6.50;2.22;;;;;;;1.59;100.00;93843.88;2114870;28;20031;-81
2024/02/21 01:30:20;;;;;;;4.45;2.15;;;;;;;1.64;100.00;93848.88;2105378;28;20028;-81
2024/02/21 01:31:21;;;;;;;5.30;2.25;;;;;;;1.62;100.00;93848.44;2089871;28;20366;-82
2024/02/21 01:32:24;;;;;;;5.78;2.40;;;;;;;1.63;100.00;93851.88;2105134;28;20020;-80
2024/02/21 01:33:25;;;;;;;4.45;2.40;;;;;;;1.42;100.00;93850.25;2107299;27;20054;-81
2024/02/21 01:34:26;;;;;;;5.63;2.05;;;;;;;1.56;100.00;93841.16;2112973;28;20096;-83
2024/02/21 01:35:27;;;;;;;4.60;2.38;;;;;;;1.50;100.00;93838.78;2099005;28;20021;-81
2024/02/21 01:36:28;;;;;;;4.03;2.33;;;;;;;1.65;100.00;93833.84;2105936;28;20338;-81
2024/02/21 01:37:29;;;;;;;4.85;2.15;;;;;;;1.73;100.00;93831.03;2109947;28;20016;-81
2024/02/21 01:38:31;;;;;;;5.80;2.28;;;;;;;1.60;100.00;93839.38;2105798;28;20560;-83
2024/02/21 01:39:33;;;;;;;2.95;2.15;;;;;;;1.71;100.00;93843.00;2106399;27;20026;-81
2024/02/21 01:40:34;;;;;;;5.63;2.20;;;;;;;1.86;100.00;93836.19;2116528;27;20035;-82
2024/02/21 01:41:35;;;;;;;4.00;2.42;;;;;;;1.73;100.00;93832.91;2105664;28;20024;-82
2024/02/21 01:42:40;;;;;;;5.10;2.53;;;;;;;1.75;100.00;93838.56;2104954;28;20032;-85
2024/02/21 01:43:41;;;;;;;4.90;2.13;;;;;;;1.79;100.00;93825.47;2109895;27;20023;-80
2024/02/21 01:44:42;;;;;;;4.10;2.15;;;;;;;1.79;100.00;93836.03;2122652;27;20387;-82
2024/02/21 01:45:46;;;;;;;6.30;2.20;;;;;;;1.70;100.00;93823.78;2114195;28;20023;-82
2024/02/21 01:46:47;;;;;;;5.57;2.42;;;;;;;1.65;100.00;93831.97;2111964;27;20031;-82
2024/02/21 01:47:49;;;;;;;4.45;2.35;;;;;;;1.58;100.00;93833.66;2113960;28;20278;-82
2024/02/21 01:48:50;;;;;;;4.00;2.10;;;;;;;1.67;100.00;93829.75;2101541;28;20693;-83
2024/02/21 01:49:51;;;;;;;4.75;2.30;;;;;;;1.70;100.00;93828.31;2103399;28;20051;-80
2024/02/21 01:50:55;;;;;;;4.15;2.05;;;;;;;1.71;100.00;93822.72;2105766;28;20024;-82
2024/02/21 01:51:56;;;;;;;3.20;2.10;;;;;;;1.69;100.00;93826.78;2097972;28;20130;-81
2024/02/21 01:53:00;;;;;;;3.63;2.03;;;;;;;1.71;100.00;93824.56;2109132;28;20128;-82
2024/02/21 01:54:01;;;;;;;5.40;2.58;;;;;;;1.79;100.00;93823.63;2121915;27;20031;-80
2024/02/21 01:55:02;;;;;;;7.32;2.10;;;;;;;1.54;100.00;93822.25;2122402;27;20031;-82
2024/02/21 01:56:05;;;;;;;3.90;2.05;;;;;;;1.41;100.00;93811.84;2114286;28;20027;-81
2024/02/21 01:57:06;;;;;;;5.53;2.03;;;;;;;1.60;100.00;93807.75;2114353;28;20563;-83
2024/02/21 01:58:07;;;;;;;4.40;2.35;;;;;;;1.50;100.00;93811.66;2114121;28;20063;-82
2024/02/21 01:59:08;;;;;;;6.80;2.70;;;;;;;1.51;100.00;93802.66;2098548;28;20357;-83
2024/02/21 02:00:13;;;;;;;4.57;2.00;;;;;;;1.82;100.00;93809.00;2104941;28;20083;-81
2024/02/21 02:01:13;;;;;;;3.63;2.17;;;;;;;1.85;100.00;93803.81;2114578;27;20476;-81
2024/02/21 02:02:16;;;;;;;3.63;1.95;;;;;;;1.99;100.00;93790.94;2105811;28;20044;-81
2024/02/21 02:03:17;;;;;;;5.85;2.30;;;;;;;1.98;100.00;93792.03;2098000;28;20123;-79
2024/02/21 02:04:20;;;;;;;4.53;2.17;;;;;;;1.89;100.00;93790.69;2105460;28;20024;-81
2024/02/21 02:05:21;;;;;;;4.07;2.00;;;;;;;1.75;100.00;93791.91;2098471;28;20165;-80
2024/02/21 02:06:22;;;;;;;3.78;2.35;;;;;;;1.71;100.00;93782.38;2106344;28;20035;-81
2024/02/21 02:07:23;;;;;;;5.65;2.30;;;;;;;1.73;100.00;93794.13;2104609;28;20488;-82
2024/02/21 02:08:24;;;;;;;5.38;2.10;;;;;;;1.68;100.00;93783.84;2097282;28;20035;-81
2024/02/21 02:09:25;;;;;;;4.07;1.90;;;;;;;1.50;100.00;93780.06;2105553;28;20024;-81
2024/02/21 02:10:26;;;;;;;2.40;1.80;;;;;;;1.59;100.00;93778.00;2104453;28;20028;-80
2024/02/21 02:11:32;;;;;;;7.28;2.30;;;;;;;1.71;100.00;93783.19;2099323;28;20028;-82
2024/02/21 02:12:32;;;;;;;4.95;2.03;;;;;;;1.83;100.00;93779.66;2105801;28;20027;-81
2024/02/21 02:13:33;;;;;;;5.72;2.10;;;;;;;1.68;100.00;93785.72;2113833;28;20024;-83
2024/02/21 02:14:34;;;;;;;6.28;2.70;;;;;;;1.47;100.00;93781.50;2105799;28;20020;-83
2024/02/21 02:15:49;;;;;;;5.10;2.10;;;;;;;1.51;100.00;93778.94;2105534;28;20461;-83
2024/02/21 02:16:50;;;;;;;5.07;2.10;;;;;;;1.59;100.00;93779.88;2109437;28;20491;-81
2024/02/21 02:17:50;;;;;;;4.97;2.13;;;;;;;1.81;100.00;93776.59;2109868;28;20020;-81
2024/02/21 02:18:51;;;;;;;4.03;1.98;;;;;;;1.86;100.00;93768.44;2101175;28;20020;-81
2024/02/21 02:19:52;;;;;;;4.82;2.30;;;;;;;1.82;100.00;93764.19;2102138;28;20369;-80
2024/02/21 02:20:53;;;;;;;3.55;2.00;;;;;;;1.42;100.00;93759.94;2102221;28;20458;-82
2024/02/21 02:22:03;;;;;;;2.80;1.80;;;;;;;1.47;100.00;93759.66;2101162;28;20023;-81
2024/02/21 02:23:10;;;;;;;;;;;;;;;1.59;100.00;93751.66;2107046;28;20062;-82
2024/02/21 02:24:11;;;;;;;3.10;2.10;;;;;;;1.70;100.00;93749.25;2107154;28;19912;-81
2024/02/21 02:25:14;;;;;;;4.68;2.25;;;;;;;1.64;100.00;93748.75;2113353;28;20500;-82
2024/02/21 02:26:14;;;;;;;3.58;2.42;;;;;;;1.58;100.00;93741.44;2097655;28;20044;-82
2024/02/21 02:27:15;;;;;;;3.15;1.80;;;;;;;1.33;100.00;93739.03;2105479;28;20024;-80
2024/02/21 02:28:16;;;;;;;6.35;1.83;;;;;;;1.46;100.00;93737.06;2097190;28;20039;-83
2024/02/21 02:29:17;;;;;;;3.40;2.10;;;;;;;1.36;100.00;93735.72;2080827;28;20112;-80
2024/02/21 02:30:18;;;;;;;3.78;2.08;;;;;;;1.34;100.00;93734.53;2097302;28;20032;-81
2024/02/21 02:31:19;;;;;;;3.88;1.90;;;;;;;1.22;100.00;93736.13;2097097;28;20504;-83
2024/02/21 02:32:20;;;;;;;5.32;2.20;;;;;;;1.19;100.00;93736.84;2088948;28;20032;-83
2024/02/21 02:33:21;;;;;;;2.35;1.80;;;;;;;1.21;100.00;93736.47;2089057;28;20025;-83
2024/02/21 02:34:22;;;;;;;4.15;2.03;;;;;;;1.28;100.00;93733.25;2097213;28;20123;-82
2024/02/21 02:35:23;;;;;;;3.28;1.95;;;;;;;1.33;100.00;93731.13;2097169;28;20043;-82
2024/02/21 02:36:24;;;;;;;7.32;2.05;;;;;;;1.30;100.00;93725.78;2088882;28;20094;-83
2024/02/21 02:37:25;;;;;;;4.50;1.95;;;;;;;1.24;100.00;93728.69;2105554;28;20314;-83
2024/02/21 02:38:26;;;;;;;3.85;2.13;;;;;;;1.33;100.00;93722.47;2097073;28;20028;-80
2024/02/21 02:39:27;;;;;;;4.75;1.95;;;;;;;1.27;100.00;93727.22;2088876;28;20025;-81
2024/02/21 02:40:28;;;;;;;5.93;1.98;;;;;;;1.31;100.00;93720.16;2097340;28;20124;-80
2024/02/21 02:41:29;;;;;;;2.75;1.92;;;;;;;1.33;100.00;93717.19;2088874;28;20497;-83
2024/02/21 02:42:30;;;;;;;3.55;1.77;;;;;;;1.35;100.00;93720.25;2096250;28;20028;-81
2024/02/21 02:43:31;;;;;;;3.67;2.13;;;;;;;1.49;100.00;93712.66;2098841;28;20025;-81
2024/02/21 02:44:32;;;;;;;3.08;1.95;;;;;;;1.55;100.00;93715.81;2097074;28;20063;-79
2024/02/21 02:45:34;;;;;;;4.55;2.10;;;;;;;1.62;100.00;93714.06;2097085;28;20024;-83
2024/02/21 02:46:35;;;;;;;2.45;1.85;;;;;;;1.59;100.00;93716.66;2102845;28;20544;-81
2024/02/21 02:47:36;;;;;;;3.22;2.03;;;;;;;1.57;100.00;93716.97;2094125;28;20017;-80
2024/02/21 02:48:38;;;;;;;4.43;2.38;;;;;;;1.63;100.00;93705.06;2091487;28;20034;-81
2024/02/21 02:49:39;;;;;;;3.67;2.00;;;;;;;1.64;100.00;93706.59;2113680;28;20028;-83
2024/02/21 02:50:40;;;;;;;8.48;2.47;;;;;;;1.59;100.00;93706.13;2105407;28;20077;-81
2024/02/21 02:51:43;;;;;;;3.88;1.92;;;;;;;1.64;100.00;93701.34;2095818;28;20029;-82
2024/02/21 02:52:44;;;;;;;5.53;1.80;;;;;;;1.68;100.00;93704.03;2088573;28;20021;-80
2024/02/21 02:53:45;;;;;;;3.13;1.83;;;;;;;1.69;100.00;93703.69;2094277;28;20389;-81
2024/02/21 02:54:51;;;;;;;4.65;1.90;;;;;;;1.71;100.00;93705.97;2097154;28;20024;-82
2024/02/21 02:55:52;;;;;;;5.00;2.17;;;;;;;1.94;100.00;93714.75;2097631;28;20028;-84
2024/02/21 02:56:55;;;;;;;5.65;1.98;;;;;;;2.13;100.00;93708.72;2089430;28;20029;-83
2024/02/21 02:57:56;;;;;;;4.15;1.98;;;;;;;2.04;100.00;93707.41;2089124;28;20021;-81
2024/02/21 02:58:57;;;;;;;3.95;1.80;;;;;;;1.98;100.00;93712.97;2088871;28;20025;-82
2024/02/21 02:59:58;;;;;;;4.63;2.25;;;;;;;1.79;100.00;93704.25;2088862;28;20403;-81
2024/02/21 03:00:59;;;;;;;3.70;2.15;;;;;;;1.83;100.00;93708.50;2094704;28;20104;-86
2024/02/21 03:02:00;;;;;;;5.43;1.88;;;;;;;1.86;100.00;93707.81;2088887;28;20052;-83
2024/02/21 03:03:03;;;;;;;3.28;1.52;;;;;;;1.87;100.00;93708.56;2097181;28;20028;-82
2024/02/21 03:04:04;;;;;;;4.22;1.95;;;;;;;1.72;100.00;93707.53;2097387;28;20062;-83
2024/02/21 03:05:15;;;;;;;4.82;1.92;;;;;;;1.72;100.00;93702.25;2088821;28;20033;-82
2024/02/21 03:06:16;;;;;;;6.05;2.03;;;;;;;1.77;100.00;93699.34;2106676;28;20032;-84
2024/02/21 03:07:17;;;;;;;4.93;1.80;;;;;;;1.84;100.00;93702.09;2097112;28;20027;-82
2024/02/21 03:08:18;;;;;;;2.80;2.03;;;;;;;1.76;100.00;93700.47;2097218;28;20028;-82
2024/02/21 03:09:19;;;;;;;4.53;2.30;;;;;;;1.74;100.00;93698.16;2088847;28;20048;-83
2024/02/21 03:10:20;;;;;;;6.30;2.33;;;;;;;1.82;100.00;93699.06;2097078;28;20024;-85
2024/02/21 03:11:28;;;;;;;3.85;2.05;;;;;;;1.73;100.00;93693.22;2105375;28;20445;-81
2024/02/21 03:12:29;;;;;;;4.22;1.90;;;;;;;1.77;100.00;93691.44;2097210;28;20409;-83
2024/02/21 03:13:30;;;;;;;2.90;1.60;;;;;;;1.67;100.00;93682.19;2097137;28;20081;-82
2024/02/21 03:14:32;;;;;;;3.13;1.70;;;;;;;1.68;100.00;93685.59;2105302;28;20053;-82
2024/02/21 03:15:33;;;;;;;4.93;1.92;;;;;;;1.47;100.00;93676.13;2097009;28;20025;-82
2024/02/21 03:16:34;;;;;;;2.80;1.75;;;;;;;1.67;100.00;93676.19;2097074;28;20048;-83
2024/02/21 03:17:35;;;;;;;4.25;1.85;;;;;;;1.66;100.00;93683.28;2097126;28;20024;-81
2024/02/21 03:18:36;;;;;;;4.68;1.80;;;;;;;1.68;100.00;93675.06;2096805;28;20093;-83
2024/02/21 03:19:37;;;;;;;3.60;1.98;;;;;;;1.66;100.00;93683.28;2088840;28;21105;-81
2024/02/21 03:20:38;;;;;;;4.38;1.75;;;;;;;1.79;100.00;93681.28;2096970;28;20477;-81
2024/02/21 03:21:39;;;;;;;3.75;1.92;;;;;;;1.86;100.00;93678.81;2105314;28;20028;-83
2024/02/21 03:22:40;;;;;;;4.47;1.83;;;;;;;1.78;100.00;93679.78;2105307;28;20020;-84
2024/02/21 03:23:41;;;;;;;4.63;1.63;;;;;;;1.67;100.00;93676.19;2090000;28;20082;-81
2024/02/21 03:24:43;;;;;;;3.75;1.88;;;;;;;1.64;100.00;93668.94;2092290;28;20028;-84
2024/02/21 03:25:44;;;;;;;3.03;1.55;;;;;;;1.60;100.00;93673.38;2100866;28;20020;-82
2024/02/21 03:26:47;;;;;;;2.72;1.90;;;;;;;1.44;100.00;93670.78;2097102;28;20029;-81
2024/02/21 03:27:48;;;;;;;3.35;1.98;;;;;;;1.44;100.00;93662.88;2081072;28;20098;-82
2024/02/21 03:28:49;;;;;;;3.53;1.70;;;;;;;1.51;100.00;93658.53;2092514;28;20024;-81
2024/02/21 03:29:50;;;;;;;5.03;2.00;;;;;;;1.52;100.00;93659.28;2110296;28;20447;-82
2024/02/21 03:30:51;;;;;;;3.63;2.17;;;;;;;1.44;100.00;93661.00;2106860;28;20031;-83
2024/02/21 03:31:52;;;;;;;4.95;2.13;;;;;;;1.36;100.00;93659.34;2090159;28;20021;-83
2024/02/21 03:32:53;;;;;;;3.78;1.60;;;;;;;1.36;100.00;93666.47;2090364;28;20033;-82
2024/02/21 03:33:54;;;;;;;2.72;1.60;;;;;;;1.42;100.00;93663.22;2090192;28;20420;-81
2024/02/21 03:34:55;;;;;;;2.95;1.83;;;;;;;1.39;100.00;93660.50;2095585;28;20089;-83
2024/02/21 03:35:56;;;;;;;4.03;1.80;;;;;;;1.27;100.00;93661.38;2086083;28;20057;-80
2024/02/21 03:36:57;;;;;;;4.47;1.80;;;;;;;1.36;100.00;93667.25;2095662;28;20098;-82
2024/02/21 03:37:58;;;;;;;3.95;2.00;;;;;;;1.67;100.00;93669.03;2098333;28;20016;-83
2024/02/21 03:38:59;;;;;;;3.13;1.85;;;;;;;1.68;100.00;93664.53;2098677;28;20496;-83
2024/02/21 03:40:00;;;;;;;3.72;1.90;;;;;;;1.63;100.00;93667.44;2106701;28;20177;-81
2024/02/21 03:41:00;;;;;;;4.65;1.65;;;;;;;1.44;100.00;93673.41;2100782;28;20849;-84
2024/02/21 03:42:04;;;;;;;2.15;1.63;;;;;;;1.35;100.00;93670.97;2103236;28;20051;-83
2024/02/21 03:43:05;;;;;;;5.65;1.90;;;;;;;1.38;100.00;93670.28;2098345;28;20047;-83
2024/02/21 03:44:06;;;;;;;5.43;2.15;;;;;;;1.23;100.00;93668.47;2088592;28;20060;-83
2024/02/21 03:45:08;;;;;;;2.83;1.80;;;;;;;1.33;100.00;93661.91;2090050;28;20029;-82
2024/02/21 03:46:08;;;;;;;4.45;1.90;;;;;;;1.41;100.00;93661.72;2094450;28;20036;-82
2024/02/21 03:47:11;;;;;;;3.53;2.00;;;;;;;1.39;100.00;93658.66;2098165;28;20354;-82
2024/02/21 03:48:12;;;;;;;3.20;1.58;;;;;;;1.34;100.00;93653.66;2114356;28;20019;-82
2024/02/21 03:49:13;;;;;;;3.60;1.70;;;;;;;1.30;100.00;93657.31;2106691;28;20024;-84
2024/02/21 03:50:14;;;;;;;2.85;1.52;;;;;;;1.25;100.00;93658.34;2090009;28;20359;-81
2024/02/21 03:51:15;;;;;;;3.92;1.73;;;;;;;1.21;100.00;93653.00;2106351;28;20024;-84
2024/02/21 03:52:16;;;;;;;2.20;1.75;;;;;;;1.27;100.00;93642.94;2106903;28;20126;-81
2024/02/21 03:53:17;;;;;;;3.50;1.98;;;;;;;1.23;100.00;93656.06;2102685;28;20520;-83
2024/02/21 03:54:19;;;;;;;5.45;1.83;;;;;;;1.18;100.00;93648.41;2098447;28;20028;-83
2024/02/21 03:55:20;;;;;;;3.17;1.77;;;;;;;1.07;100.00;93646.66;2106666;28;20016;-82
2024/02/21 03:56:20;;;;;;;5.32;1.83;;;;;;;1.05;100.00;93644.34;2106093;28;20028;-80
2024/02/21 03:57:22;;;;;;;4.38;1.50;;;;;;;1.18;100.00;93643.13;2107265;28;20031;-81
2024/02/21 03:58:22;;;;;;;5.25;1.70;;;;;;;1.20;100.00;93648.84;2097532;28;20442;-81
2024/02/21 03:59:23;;;;;;;6.78;1.70;;;;;;;1.31;100.00;93641.16;2082836;28;20029;-81
2024/02/21 04:00:24;;;;;;;3.70;1.60;;;;;;;1.37;100.00;93652.22;2106805;28;20024;-81
2024/02/21 04:01:25;;;;;;;4.22;1.80;;;;;;;1.22;100.00;93651.13;2122382;27;20408;-83
2024/02/21 04:02:26;;;;;;;4.22;1.80;;;;;;;1.14;100.00;93655.47;2107993;28;20031;-81
2024/02/21 04:03:27;;;;;;;2.78;1.60;;;;;;;1.29;100.00;93655.78;2105053;28;20024;-82
2024/02/21 04:04:28;;;;;;;3.17;1.50;;;;;;;1.24;100.00;93654.19;2083473;28;20108;-81
2024/02/21 04:05:29;;;;;;;4.82;1.90;;;;;;;1.26;100.00;93662.50;2085901;28;20033;-80
2024/02/21 04:06:30;;;;;;;3.45;1.63;;;;;;;1.40;100.00;93664.66;2088009;28;20410;-82
2024/02/21 04:07:32;;;;;;;3.15;1.77;;;;;;;1.39;100.00;93663.91;2091814;28;20020;-84
2024/02/21 04:08:33;;;;;;;3.28;1.63;;;;;;;1.28;100.00;93664.81;2112897;28;20373;-80
2024/02/21 04:09:34;;;;;;;2.53;1.52;;;;;;;1.14;100.00;93663.38;2100450;28;20035;-80
2024/02/21 04:10:35;;;;;;;2.42;1.63;;;;;;;1.13;100.00;93651.31;2098272;28;20028;-82
2024/02/21 04:11:36;;;;;;;2.67;1.90;;;;;;;1.11;100.00;93645.63;2098217;28;20024;-83
2024/02/21 04:12:38;;;;;;;2.72;1.58;;;;;;;1.10;100.00;93648.59;2092767;28;20021;-84
2024/02/21 04:13:39;;;;;;;4.68;1.80;;;;;;;1.11;100.00;93652.78;2097216;28;20040;-83
2024/02/21 04:14:40;;;;;;;3.72;1.88;;;;;;;1.15;100.00;93650.97;2089812;28;20151;-85
2024/02/21 04:15:40;;;;;;;3.22;1.85;;;;;;;1.32;100.00;93655.09;2101772;28;20024;-82
2024/02/21 04:16:41;;;;;;;3.75;1.52;;;;;;;1.18;100.00;93651.03;2097917;28;20020;-83
2024/02/21 04:17:42;;;;;;;3.55;1.60;;;;;;;1.18;100.00;93648.41;2089847;28;20051;-83
2024/02/21 04:18:44;;;;;;;3.58;1.67;;;;;;;1.15;100.00;93640.44;2094575;28;20025;-80
2024/02/21 04:19:44;;;;;;;2.80;1.80;;;;;;;1.20;100.00;93638.31;2094202;28;20025;-81
2024/02/21 04:20:46;;;;;;;3.15;1.40;;;;;;;1.17;100.00;93632.97;2093831;28;20024;-82
2024/02/21 04:21:47;;;;;;;3.40;1.50;;;;;;;1.25;100.00;93632.00;2111973;28;20123;-83
2024/02/21 04:22:48;;;;;;;3.60;1.98;;;;;;;1.22;100.00;93633.44;2106410;28;20544;-81
2024/02/21 04:23:49;;;;;;;6.20;2.42;;;;;;;1.43;100.00;93627.88;2093623;28;20464;-83
2024/02/21 04:24:50;;;;;;;2.10;1.70;;;;;;;1.31;100.00;93637.75;2106421;28;20042;-83
2024/02/21 04:25:52;;;;;;;4.13;1.75;;;;;;;1.41;100.00;93632.75;2102544;28;20473;-84
2024/02/21 04:26:53;;;;;;;2.25;1.52;;;;;;;1.49;100.00;93628.34;2106651;28;20035;-82
2024/02/21 04:27:54;;;;;;;6.25;2.28;;;;;;;1.45;100.00;93636.22;2098032;28;20477;-82
2024/02/21 04:28:55;;;;;;;2.15;1.67;;;;;;;1.20;100.00;93629.66;2106646;28;20031;-84
2024/02/21 04:29:56;;;;;;;3.00;1.60;;;;;;;1.14;100.00;93628.38;2106517;28;20058;-82
2024/02/21 04:30:56;;;;;;;4.57;1.73;;;;;;;1.20;100.00;93630.41;2089754;28;20025;-81
2024/02/21 04:31:57;;;;;;;4.68;1.77;;;;;;;1.23;100.00;93624.47;2098127;28;20044;-81
2024/02/21 04:32:58;;;;;;;2.63;1.70;;;;;;;1.20;100.00;93614.63;2089876;28;20021;-82
2024/02/21 04:33:59;;;;;;;3.05;2.05;;;;;;;1.28;100.00;93625.31;2089650;28;20041;-83
2024/02/21 04:35:00;;;;;;;5.18;2.20;;;;;;;1.19;100.00;93618.34;2097886;28;20377;-82
2024/02/21 04:36:02;;;;;;;5.60;1.77;;;;;;;1.43;100.00;93619.97;2097966;28;20020;-81
2024/02/21 04:37:04;;;;;;;5.10;1.98;;;;;;;1.34;100.00;93610.75;2090299;28;20033;-83
2024/02/21 04:38:05;;;;;;;4.15;1.90;;;;;;;1.64;100.00;93611.00;2089796;28;20123;-82
2024/02/21 04:39:06;;;;;;;5.35;2.03;;;;;;;1.68;100.00;93611.81;2096457;28;20105;-83
2024/02/21 04:40:07;;;;;;;6.95;1.95;;;;;;;1.39;100.00;93602.56;2089743;28;20088;-82
2024/02/21 04:41:08;;;;;;;5.72;1.85;;;;;;;1.32;100.00;93607.69;2088336;28;20036;-82
2024/02/21 04:42:09;;;;;;;4.45;2.03;;;;;;;1.26;100.00;93609.84;2085453;28;20053;-85
2024/02/21 04:43:10;;;;;;;5.55;1.98;;;;;;;1.15;100.00;93595.69;2097073;28;20043;-80
2024/02/21 04:44:10;;;;;;;3.55;2.08;;;;;;;1.16;100.00;93605.13;2106214;28;20051;-82
2024/02/21 04:45:11;;;;;;;5.88;1.98;;;;;;;1.36;100.00;93595.34;2106412;28;20035;-82
2024/02/21 04:46:12;;;;;;;5.15;1.83;;;;;;;1.30;100.00;93596.75;2106297;28;20028;-83
2024/02/21 04:47:13;;;;;;;3.05;1.70;;;;;;;1.17;100.00;93606.63;2103684;28;20028;-83
2024/02/21 04:48:14;;;;;;;4.45;1.95;;;;;;;1.18;100.00;93598.38;2089642;28;20359;-83
2024/02/21 04:49:15;;;;;;;4.10;1.75;;;;;;;1.12;100.00;93594.50;2089643;28;20028;-84